Terminal Aerodrome Forecast
Issued by NWS

Home | Current Version | Previous Version | Graphics & Text | Print | Product List | Glossary On
Versions: 1 2 3 4 5 6 7 8 9 10 11 12 13 14 15 16 17
000
FTUS43 KTOP 310730 AAA
TAFMHK
TAF AMD
KMHK 310730Z 3108/0106 17006KT P6SM VCTS SCT060CB
     FM311100 18005KT 5SM BR BKN020
     FM311600 18006KT P6SM VCTS BKN020 OVC060CB
     FM312200 36005KT P6SM BKN050=

USA.gov is the U.S. government's official web portal to all federal, state and local government web resources and services.